Time;durP1;ratioP1;P1;durP2;ratioP2;P2;SDS_P1;SDS_P2;PMS_P1;PMS_P2;Temp;Humidity;BMP_temperature;BMP_pressure;BME280_temperature;BME280_humidity;BME280_pressure;Samples;Min_cycle;Max_cycle;Signal;HPM_P1;HPM_P2
2022/12/09 00:02:10;;;;;;;;;30.25;27.75;;;;;4.06;79.65;99888.53;5073719;28;45428;-90
2022/12/09 00:04:35;;;;;;;;;34.25;31.25;;;;;3.41;79.18;99752.00;5039212;28;45392;-88
2022/12/09 00:07:01;;;;;;;;;28.50;18.75;;;;;2.83;79.11;99654.69;5052155;28;45623;-90
2022/12/09 00:09:26;;;;;;;;;45.25;38.25;;;;;4.01;79.44;99861.53;5026580;28;47200;-90
2022/12/09 00:11:52;;;;;;;;;32.00;27.25;;;;;3.64;79.13;99785.00;5044164;28;45787;-91
2022/12/09 00:14:18;;;;;;;;;44.50;34.25;;;;;3.73;79.52;99806.75;5061087;28;45301;-92
2022/12/09 00:16:43;;;;;;;;;28.25;24.25;;;;;2.23;79.35;99545.31;5041459;28;45264;-91
2022/12/09 00:19:09;;;;;;;;;41.25;35.75;;;;;3.58;79.30;99798.09;5041898;28;47112;-91
2022/12/09 00:21:35;;;;;;;;;35.75;31.75;;;;;2.73;79.53;99628.63;5041234;28;45290;-91
2022/12/09 00:24:05;;;;;;;;;31.00;26.50;;;;;1.89;79.12;99495.81;5046656;28;45337;-91
2022/12/09 00:26:33;;;;;;;;;31.50;30.00;;;;;3.99;79.55;99852.81;5044536;28;45459;-92
2022/12/09 00:28:59;;;;;;;;;29.00;24.25;;;;;3.65;79.28;99792.84;5040257;28;47463;-92
2022/12/09 00:31:28;;;;;;;;;28.25;25.25;;;;;2.36;79.28;99587.00;5040796;28;45265;-91
2022/12/09 00:33:58;;;;;;;;;34.25;28.75;;;;;3.82;79.40;99815.44;5042753;28;45284;-91
2022/12/09 00:36:25;;;;;;;;;27.50;24.75;;;;;3.21;79.23;99731.19;5050174;28;45198;-91
2022/12/09 00:38:52;;;;;;;;;34.00;27.50;;;;;3.12;79.56;99686.81;5046845;28;47653;-92
2022/12/09 00:41:17;;;;;;;;;33.50;30.00;;;;;3.56;79.55;99766.75;5043389;28;45939;-92
2022/12/09 00:43:43;;;;;;;;;31.25;28.25;;;;;2.20;79.05;99550.53;5051645;28;45332;-92
2022/12/09 00:46:10;;;;;;;;;24.25;21.00;;;;;4.00;78.92;99838.88;5060842;28;44867;-91
2022/12/09 00:48:37;;;;;;;;;28.25;27.00;;;;;3.39;79.43;99730.25;5050724;28;46274;-92
2022/12/09 00:51:04;;;;;;;;;23.75;21.75;;;;;3.56;78.74;99751.06;5044979;28;45304;-91
2022/12/09 00:53:30;;;;;;;;;26.25;25.00;;;;;1.94;79.36;99490.59;5044439;28;45194;-91
2022/12/09 00:55:56;;;;;;;;;28.75;19.50;;;;;2.88;79.32;99649.47;5060491;28;45368;-91
2022/12/09 00:58:23;;;;;;;;;22.50;20.00;;;;;2.76;79.46;99623.41;5044233;28;48521;-93
2022/12/09 01:00:49;;;;;;;;;23.25;20.25;;;;;3.98;79.38;99832.78;5046344;28;44890;-92
2022/12/09 01:03:16;;;;;;;;;19.25;19.25;;;;;2.15;79.38;99505.31;5065060;28;45265;-91
2022/12/09 01:05:42;;;;;;;;;31.00;29.50;;;;;2.96;78.64;99649.44;5053370;28;45348;-90
2022/12/09 01:08:09;;;;;;;;;30.25;22.00;;;;;2.74;79.19;99617.34;5055394;28;47622;-91
2022/12/09 01:10:37;;;;;;;;;30.50;27.50;;;;;2.90;79.05;99652.94;5050028;28;44853;-90
2022/12/09 01:13:03;;;;;;;;;32.50;24.50;;;;;3.59;79.11;99790.25;5050198;28;45392;-91
2022/12/09 01:15:29;;;;;;;;;25.00;21.25;;;;;3.88;79.60;99828.47;5064948;28;45261;-91
2022/12/09 01:17:55;;;;;;;;;31.25;28.50;;;;;3.85;79.33;99833.72;5044713;28;47015;-92
2022/12/09 01:20:20;;;;;;;;;38.25;36.50;;;;;3.00;79.13;99667.69;5044240;28;45885;-90
2022/12/09 01:22:46;;;;;;;;;35.75;30.50;;;;;2.07;79.13;99512.31;5044848;28;45426;-91
2022/12/09 01:25:12;;;;;;;;;41.00;29.50;;;;;1.82;79.48;99470.63;5045396;28;45276;-91
2022/12/09 01:27:38;;;;;;;;;29.75;18.50;;;;;3.84;79.47;99831.97;5044063;28;47494;-91
2022/12/09 01:30:06;;;;;;;;;40.25;34.00;;;;;3.09;79.60;99699.88;5060869;28;45258;-92
2022/12/09 01:32:31;;;;;;;;;37.75;33.50;;;;;3.83;79.51;99815.41;5043092;28;45456;-90
2022/12/09 01:34:57;;;;;;;;;47.75;34.25;;;;;2.58;79.17;99613.88;5048055;28;45389;-91
2022/12/09 01:37:22;;;;;;;;;40.75;34.00;;;;;1.60;79.38;99455.03;5049788;28;47756;-93
2022/12/09 01:39:48;;;;;;;;;51.75;38.50;;;;;3.81;79.38;99831.97;5050152;28;45360;-90
2022/12/09 01:42:19;;;;;;;;;38.75;32.25;;;;;3.66;79.40;99783.25;5052748;28;45459;-89
2022/12/09 01:45:20;;;;;;;;;42.25;37.25;;;;;3.80;79.69;99814.59;5051249;28;45402;-89
2022/12/09 01:48:10;;;;;;;;;45.00;38.50;;;;;3.77;80.09;99811.97;5072495;28;45430;-90
2022/12/09 01:50:39;;;;;;;;;46.00;32.75;;;;;2.95;80.02;99689.47;5034169;28;45622;-89
2022/12/09 01:53:06;;;;;;;;;43.75;38.75;;;;;3.18;79.53;99725.97;5058666;28;45327;-89
2022/12/09 01:55:32;;;;;;;;;46.50;39.50;;;;;3.72;79.52;99812.84;5040659;28;45613;-90
2022/12/09 01:58:00;;;;;;;;;49.75;39.75;;;;;2.76;80.17;99654.72;5040653;28;45442;-91
2022/12/09 02:00:26;;;;;;;;;47.00;39.00;;;;;2.79;79.80;99659.94;5044706;28;45249;-91
2022/12/09 02:02:54;;;;;;;;;39.00;32.50;;;;;3.09;80.70;99731.22;5060430;28;45413;-90
2022/12/09 02:05:23;;;;;;;;;51.75;40.25;;;;;3.69;79.62;99833.78;5048997;28;45722;-92
2022/12/09 02:07:49;;;;;;;;;45.50;38.75;;;;;2.31;80.22;99576.56;5050827;28;47462;-91
2022/12/09 02:10:16;;;;;;;;;50.75;41.25;;;;;1.64;80.07;99465.47;5049790;28;45025;-92
2022/12/09 02:13:08;;;;;;;;;49.00;40.25;;;;;2.43;79.84;99604.34;5066162;28;45410;-91
2022/12/09 02:15:33;;;;;;;;;47.75;38.50;;;;;3.64;80.23;99805.91;5045088;28;45258;-92
2022/12/09 02:18:05;;;;;;;;;39.75;35.50;;;;;1.13;79.46;99390.00;5044882;28;47100;-92
2022/12/09 02:20:36;;;;;;;;;49.50;37.25;;;;;2.43;80.33;99614.78;5044504;28;45273;-92
2022/12/09 02:23:21;;;;;;;;;40.75;37.00;;;;;3.20;79.94;99745.09;5052499;28;45369;-92
2022/12/09 02:25:54;;;;;;;;;41.50;30.00;;;;;2.38;80.04;99619.16;5067854;28;44878;-92
2022/12/09 02:29:00;;;;;;;;;48.00;36.25;;;;;3.53;79.88;99795.50;5046264;28;45434;-91
2022/12/09 02:31:58;;;;;;;;;51.00;38.00;;;;;1.67;79.74;99486.28;4925669;28;45239;-91
2022/12/09 02:34:29;;;;;;;;;39.75;34.25;;;;;3.12;79.91;99725.97;4890535;29;45470;-92
2022/12/09 02:37:14;;;;;;;;;45.50;35.50;;;;;3.49;79.92;99794.66;4891041;29;45295;-91
2022/12/09 02:39:58;;;;;;;;;38.00;34.00;;;;;3.37;80.62;99794.66;4890552;29;46082;-91
2022/12/09 02:42:28;;;;;;;;;53.25;36.75;;;;;3.47;80.41;99806.84;4890763;29;45348;-91
2022/12/09 02:44:57;;;;;;;;;39.25;33.50;;;;;1.99;80.40;99542.72;4890897;29;45490;-91
2022/12/09 02:47:28;;;;;;;;;45.00;37.25;;;;;1.52;80.40;99464.63;4886498;29;45260;-92
2022/12/09 02:50:01;;;;;;;;;43.75;33.75;;;;;3.06;80.64;99732.09;4883697;29;47028;-92
2022/12/09 02:52:29;;;;;;;;;31.00;27.25;;;;;2.26;79.90;99597.44;4887098;29;44845;-92
2022/12/09 02:54:59;;;;;;;;;53.50;37.75;;;;;2.63;80.14;99661.72;4887189;29;45413;-92
2022/12/09 02:57:29;;;;;;;;;32.00;27.25;;;;;2.57;80.21;99651.31;4882848;29;45499;-91
2022/12/09 02:59:54;;;;;;;;;38.75;31.75;;;;;3.41;80.49;99788.56;4887316;29;47897;-92
2022/12/09 03:02:27;;;;;;;;;59.25;39.25;;;;;1.71;80.36;99508.88;4865945;29;45460;-92
2022/12/09 03:05:20;;;;;;;;;32.50;25.75;;;;;2.19;80.45;99587.91;4887650;29;45331;-91
2022/12/09 03:08:04;;;;;;;;;40.50;27.00;;;;;3.40;79.65;99788.56;4894896;28;45679;-91
2022/12/09 03:11:00;;;;;;;;;41.75;34.25;;;;;2.57;80.18;99674.78;5017649;28;45991;-92
2022/12/09 03:13:58;;;;;;;;;39.25;36.00;;;;;3.34;80.70;99790.34;5046428;28;44623;-91
2022/12/09 03:16:55;;;;;;;;;44.75;37.75;;;;;2.37;79.98;99630.44;5023866;28;45451;-90
2022/12/09 03:19:39;;;;;;;;;36.25;32.25;;;;;1.90;79.79;99575.75;5045863;28;44906;-91
2022/12/09 03:25:37;;;;;;;;;34.25;29.50;;;;;2.21;80.01;99627.88;5043223;28;45621;-91
2022/12/09 03:28:21;;;;;;;;;37.75;23.75;;;;;2.20;80.02;99633.97;5025188;28;45361;-91
2022/12/09 03:30:48;;;;;;;;;33.25;31.00;;;;;1.78;79.66;99567.94;5008225;28;45477;-92
2022/12/09 03:33:19;;;;;;;;;38.75;26.50;;;;;1.25;80.04;99488.94;5022735;28;47514;-92
2022/12/09 03:35:55;;;;;;;;;37.50;34.50;;;;;2.99;80.60;99782.56;5027392;28;45270;-91
2022/12/09 03:38:24;;;;;;;;;32.50;28.50;;;;;1.68;80.41;99563.59;5024920;28;45275;-91
2022/12/09 03:41:12;;;;;;;;;31.75;26.00;;;;;1.76;80.00;99580.97;5039722;28;45352;-92
2022/12/09 03:43:41;;;;;;;;;29.25;26.25;;;;;2.25;79.95;99679.16;5023696;28;47436;-92
2022/12/09 03:46:07;;;;;;;;;31.75;28.25;;;;;2.59;80.04;99735.66;5027610;28;45426;-92
2022/12/09 03:48:33;;;;;;;;;37.75;24.75;;;;;1.96;80.49;99624.41;5039614;28;45417;-92
2022/12/09 03:51:13;;;;;;;;;33.25;26.25;;;;;2.00;80.77;99622.66;5036433;28;45481;-91
2022/12/09 03:53:59;;;;;;;;;30.25;23.75;;;;;1.11;80.01;99481.09;5021014;28;47274;-92
2022/12/09 03:56:29;;;;;;;;;28.50;24.75;;;;;1.71;80.01;99571.41;5020793;28;45310;-92
2022/12/09 03:59:01;;;;;;;;;39.25;35.00;;;;;1.46;79.74;99540.16;5041149;28;45265;-92
2022/12/09 04:01:31;;;;;;;;;24.00;20.50;;;;;2.87;79.77;99785.22;5024923;28;45346;-92
2022/12/09 04:03:56;;;;;;;;;24.50;19.50;;;;;2.42;80.09;99680.88;5037381;28;46706;-92
2022/12/09 04:06:23;;;;;;;;;32.25;27.00;;;;;2.87;79.96;99762.59;5056392;28;44989;-91
2022/12/09 04:08:48;;;;;;;;;33.25;27.00;;;;;2.86;80.53;99758.25;5013095;28;45234;-91
2022/12/09 04:11:14;;;;;;;;;32.50;26.00;;;;;0.65;79.99;99401.25;5043415;28;45455;-92
2022/12/09 04:13:40;;;;;;;;;34.75;34.00;;;;;1.05;79.52;99460.28;5004598;28;47047;-91
2022/12/09 04:16:06;;;;;;;;;29.00;21.00;;;;;0.96;79.94;99463.75;5022026;28;45341;-91
2022/12/09 04:18:31;;;;;;;;;31.00;28.50;;;;;1.55;80.04;99539.25;5023884;28;45407;-92
2022/12/09 04:20:57;;;;;;;;;32.50;27.75;;;;;2.24;80.43;99677.41;5025183;28;45617;-92
2022/12/09 04:23:22;;;;;;;;;26.00;21.50;;;;;2.25;79.68;99667.88;5046113;28;47092;-92
2022/12/09 04:25:48;;;;;;;;;32.25;28.00;;;;;1.23;80.18;99491.53;5030589;28;45468;-91
2022/12/09 04:28:14;;;;;;;;;36.25;29.25;;;;;2.24;79.94;99661.75;5024588;28;45456;-92
2022/12/09 04:30:46;;;;;;;;;32.75;29.25;;;;;1.58;80.44;99570.56;5009379;28;45615;-92
2022/12/09 04:33:12;;;;;;;;;40.50;32.00;;;;;2.22;79.87;99671.34;5009602;28;48136;-91
2022/12/09 04:35:37;;;;;;;;;33.75;28.00;;;;;0.43;79.81;99366.53;5030573;28;45540;-91
2022/12/09 04:38:03;;;;;;;;;40.75;31.75;;;;;2.69;80.04;99749.53;5010264;28;45437;-91
2022/12/09 04:40:28;;;;;;;;;33.50;26.75;;;;;1.24;79.58;99498.47;5046641;28;45407;-90
2022/12/09 04:42:54;;;;;;;;;37.75;32.00;;;;;2.22;79.64;99673.94;5040550;28;48261;-89
2022/12/09 04:45:19;;;;;;;;;31.25;22.25;;;;;1.32;79.98;99537.53;5024682;28;45246;-92
2022/12/09 04:47:45;;;;;;;;;33.25;22.50;;;;;1.24;79.96;99529.72;5024106;28;45436;-91
2022/12/09 04:50:11;;;;;;;;;38.00;26.00;;;;;1.76;79.99;99629.59;5008531;28;45421;-92
2022/12/09 04:52:38;;;;;;;;;36.25;31.00;;;;;1.42;79.89;99559.25;5027175;28;45482;-92
2022/12/09 04:55:05;;;;;;;;;33.00;27.75;;;;;1.27;79.61;99525.38;5027159;28;45239;-90
2022/12/09 04:57:30;;;;;;;;;30.50;24.25;;;;;1.54;80.06;99582.69;5031009;28;45212;-91
2022/12/09 04:59:56;;;;;;;;;27.50;26.50;;;;;1.24;80.09;99531.44;5030053;28;45220;-91
2022/12/09 05:02:22;;;;;;;;;29.00;24.25;;;;;2.02;80.00;99660.91;5022285;28;47783;-91
2022/12/09 05:04:47;;;;;;;;;31.25;29.00;;;;;2.08;79.65;99670.44;5029696;28;45233;-92
2022/12/09 05:07:13;;;;;;;;;35.50;29.75;;;;;1.93;79.92;99666.97;5045774;28;45300;-92
2022/12/09 05:09:39;;;;;;;;;35.00;25.75;;;;;2.46;79.32;99758.25;5042852;28;45403;-92
2022/12/09 05:12:04;;;;;;;;;33.25;25.00;;;;;2.46;80.07;99742.59;5022454;28;45400;-91
2022/12/09 05:14:30;;;;;;;;;29.00;26.25;;;;;1.13;80.05;99533.16;5037902;28;45412;-90
2022/12/09 05:16:56;;;;;;;;;42.75;29.25;;;;;2.43;79.65;99751.31;5032951;28;45423;-90
2022/12/09 05:19:21;;;;;;;;;32.00;27.75;;;;;1.46;79.45;99593.97;5059192;28;45462;-90
2022/12/09 05:21:49;;;;;;;;;21.50;17.25;;;;;1.09;79.48;99532.28;5041393;28;46722;-90
2022/12/09 05:24:14;;;;;;;;;26.25;23.25;;;;;1.60;80.00;99620.91;5060339;28;45312;-91
2022/12/09 05:26:40;;;;;;;;;27.50;24.50;;;;;2.11;79.72;99699.13;5068079;28;45380;-90
2022/12/09 05:29:05;;;;;;;;;36.50;30.75;;;;;1.93;80.13;99666.97;5050249;28;45582;-90
2022/12/09 05:31:31;;;;;;;;;33.50;28.25;;;;;0.86;79.73;99495.81;5043332;28;47358;-89
2022/12/09 05:33:58;;;;;;;;;32.50;26.50;;;;;1.40;79.63;99608.72;5044731;28;45585;-90
2022/12/09 05:36:26;;;;;;;;;29.75;29.00;;;;;0.95;79.64;99541.81;5065041;28;45410;-90
2022/12/09 05:38:52;;;;;;;;;31.25;23.25;;;;;1.92;79.94;99693.91;5059191;28;45409;-89
2022/12/09 05:41:18;;;;;;;;;28.25;25.50;;;;;0.17;79.37;99390.72;5050279;28;45760;-89
2022/12/09 05:43:44;;;;;;;;;39.75;23.25;;;;;1.47;79.46;99626.97;5060502;28;44685;-91
2022/12/09 05:46:11;;;;;;;;;32.50;25.75;;;;;2.15;79.57;99723.50;5029857;28;45274;-90
2022/12/09 05:48:37;;;;;;;;;31.75;25.00;;;;;0.92;79.41;99534.00;5063145;28;45273;-90
2022/12/09 05:51:06;;;;;;;;;29.75;23.00;;;;;-0.29;78.87;99306.56;5034389;28;46368;-91
2022/12/09 05:53:32;;;;;;;;;31.25;26.25;;;;;1.85;79.65;99699.97;5039952;28;45734;-90
2022/12/09 05:55:58;;;;;;;;;27.00;21.25;;;;;0.74;79.49;99485.38;5059376;28;45352;-90
2022/12/09 05:58:24;;;;;;;;;34.75;25.75;;;;;1.76;80.12;99676.50;5050093;28;45371;-90
2022/12/09 06:00:50;;;;;;;;;29.25;25.50;;;;;1.03;79.37;99560.91;5022222;28;46199;-90
2022/12/09 06:03:15;;;;;;;;;25.00;23.00;;;;;0.10;79.37;99398.50;5060876;28;45453;-90
2022/12/09 06:05:41;;;;;;;;;36.25;26.50;;;;;1.68;79.11;99665.22;5065557;28;45303;-90
2022/12/09 06:08:09;;;;;;;;;29.75;23.00;;;;;0.31;78.99;99444.50;5062114;28;45602;-89
2022/12/09 06:10:38;;;;;;;;;26.25;24.75;;;;;2.19;79.44;99778.25;5046678;28;47473;-89
2022/12/09 06:13:04;;;;;;;;;30.00;23.25;;;;;0.78;79.09;99540.00;5062070;28;45293;-88
2022/12/09 06:15:29;;;;;;;;;31.50;25.25;;;;;1.35;79.50;99646.91;5066853;28;45308;-90
2022/12/09 06:17:55;;;;;;;;;21.75;19.00;;;;;1.20;79.62;99626.91;5046392;28;45338;-91
2022/12/09 06:20:29;;;;;;;;;29.00;25.25;;;;;1.29;79.13;99640.81;5044086;28;48314;-90
2022/12/09 06:22:55;;;;;;;;;29.25;25.25;;;;;2.11;79.54;99775.63;5043481;28;46066;-90
2022/12/09 06:25:20;;;;;;;;;33.50;26.25;;;;;0.87;79.66;99592.09;5060284;28;45284;-90
2022/12/09 06:27:46;;;;;;;;;27.00;24.25;;;;;1.14;79.49;99637.31;5057813;28;45312;-88
2022/12/09 06:30:12;;;;;;;;;26.75;22.50;;;;;0.25;78.80;99484.31;5059603;28;45596;-91
2022/12/09 06:32:38;;;;;;;;;22.50;22.50;;;;;0.51;78.57;99557.25;5064697;28;45448;-90
2022/12/09 06:35:06;;;;;;;;;29.75;23.75;;;;;1.12;79.39;99645.97;5048887;28;45331;-90
2022/12/09 06:37:35;;;;;;;;;26.75;23.50;;;;;1.08;79.08;99645.09;5052685;28;45378;-91
2022/12/09 06:40:05;;;;;;;;;32.25;27.50;;;;;0.56;79.14;99551.19;5066450;28;45658;-87
2022/12/09 06:42:30;;;;;;;;;19.25;16.50;;;;;1.29;79.63;99685.06;5064449;28;45470;-90
2022/12/09 06:44:58;;;;;;;;;21.75;16.25;;;;;1.88;79.19;99783.41;5047080;28;45267;-90
2022/12/09 06:47:24;;;;;;;;;19.75;17.00;;;;;0.08;78.33;99496.38;5041006;28;45581;-91
2022/12/09 06:50:00;;;;;;;;;17.75;17.25;;;;;1.81;78.89;99780.75;5041034;28;48072;-89
2022/12/09 06:52:34;;;;;;;;;16.00;16.00;;;;;1.77;79.16;99800.72;5065096;28;45435;-90
2022/12/09 06:54:59;;;;;;;;;25.25;22.50;;;;;1.27;78.25;99707.63;5023317;28;45301;-89
2022/12/09 06:57:25;;;;;;;;;15.00;13.75;;;;;0.97;78.62;99655.47;5023289;28;45323;-87
2022/12/09 06:59:50;;;;;;;;;26.00;22.25;;;;;0.85;79.33;99630.25;5059438;28;45390;-89
2022/12/09 07:02:16;;;;;;;;;18.25;16.50;;;;;0.82;78.69;99647.56;5063221;28;45355;-88
2022/12/09 07:04:42;;;;;;;;;32.00;24.50;;;;;0.93;78.45;99665.81;5064053;28;45248;-89
2022/12/09 07:07:09;;;;;;;;;30.50;20.25;;;;;-0.59;78.32;99428.44;5061964;28;45652;-89
2022/12/09 07:09:35;;;;;;;;;27.00;23.25;;;;;0.02;78.53;99535.34;5060410;28;48347;-89
2022/12/09 07:12:00;;;;;;;;;25.00;21.00;;;;;0.56;78.67;99622.28;5039038;28;45277;-89
2022/12/09 07:14:26;;;;;;;;;29.75;24.50;;;;;0.89;78.71;99688.38;5073900;28;45444;-89
2022/12/09 07:16:51;;;;;;;;;30.50;25.25;;;;;-0.21;78.65;99487.53;5081308;28;45476;-89
2022/12/09 07:19:19;;;;;;;;;31.50;27.25;;;;;0.95;79.00;99708.34;5043866;28;46984;-89
2022/12/09 07:21:45;;;;;;;;;21.50;21.50;;;;;0.62;78.48;99642.25;5080788;28;44731;-88
2022/12/09 07:24:13;;;;;;;;;29.25;22.00;;;;;-0.66;79.12;99442.22;5076264;28;45332;-90
2022/12/09 07:26:39;;;;;;;;;31.25;24.50;;;;;-0.39;78.75;99503.88;5047853;28;45638;-89
2022/12/09 07:29:06;;;;;;;;;31.00;27.25;;;;;0.19;79.11;99613.41;5062029;28;48493;-91
2022/12/09 07:31:32;;;;;;;;;26.25;20.50;;;;;-0.69;78.65;99442.19;5041505;28;45420;-88
2022/12/09 07:33:58;;;;;;;;;23.75;22.25;;;;;-0.49;78.58;99496.00;5061601;28;45404;-89
2022/12/09 07:36:26;;;;;;;;;24.75;21.00;;;;;-0.50;78.92;99520.22;5049375;28;45419;-89
2022/12/09 07:38:57;;;;;;;;;25.00;23.75;;;;;1.02;78.71;99757.00;5043318;28;48053;-87
2022/12/09 07:41:22;;;;;;;;;36.25;29.00;;;;;-0.16;78.81;99562.06;5065852;28;45486;-86
2022/12/09 07:43:48;;;;;;;;;24.50;22.00;;;;;-0.90;78.83;99436.00;5039650;28;45552;-89
2022/12/09 07:46:15;;;;;;;;;17.00;12.25;;;;;0.68;78.69;99704.72;5048869;28;45393;-86
2022/12/09 07:48:41;;;;;;;;;28.00;19.00;;;;;-0.15;78.37;99567.25;5036528;28;47087;-88
2022/12/09 07:51:07;;;;;;;;;24.50;23.25;;;;;0.33;79.07;99646.44;5057249;28;45581;-89
2022/12/09 07:53:36;;;;;;;;;27.50;21.75;;;;;-0.75;78.61;99478.50;5059711;28;45485;-89
2022/12/09 07:56:05;;;;;;;;;29.25;23.75;;;;;-0.54;78.63;99502.03;5043418;28;45455;-88
2022/12/09 07:58:30;;;;;;;;;30.75;20.00;;;;;0.17;78.74;99629.84;5056482;28;46071;-89
2022/12/09 08:00:56;;;;;;;;;30.00;25.25;;;;;1.34;78.75;99834.41;5076641;28;45271;-88
2022/12/09 08:03:21;;;;;;;;;27.50;20.00;;;;;-0.58;78.62;99521.03;5050866;28;45679;-87
2022/12/09 08:05:51;;;;;;;;;24.25;21.50;;;;;0.55;78.57;99703.78;5064216;28;45186;-91
2022/12/09 08:08:17;;;;;;;;;20.50;16.00;;;;;0.91;77.81;99779.47;5047170;28;47284;-89
2022/12/09 08:10:46;;;;;;;;;26.50;21.25;;;;;1.27;78.24;99827.41;5055744;28;45475;-89
2022/12/09 08:13:11;;;;;;;;;25.00;25.00;;;;;-0.31;77.85;99557.59;5057675;28;45304;-89
2022/12/09 08:15:37;;;;;;;;;24.75;22.50;;;;;-0.32;78.19;99572.28;5057956;28;45431;-89
2022/12/09 08:18:03;;;;;;;;;29.00;24.25;;;;;-0.31;77.64;99574.03;5040295;28;45609;-90
2022/12/09 08:20:29;;;;;;;;;25.25;22.00;;;;;0.96;78.60;99790.78;5043141;28;44837;-92
2022/12/09 08:22:57;;;;;;;;;21.50;19.25;;;;;-0.43;77.99;99577.41;5026852;28;45440;-89
2022/12/09 08:25:23;;;;;;;;;21.50;20.25;;;;;0.73;77.78;99756.78;5055575;28;45465;-89
2022/12/09 08:27:49;;;;;;;;;14.50;10.00;;;;;1.16;78.14;99832.56;5050835;28;46985;-89
2022/12/09 08:30:15;;;;;;;;;27.75;23.00;;;;;-0.27;78.06;99586.22;5036710;28;45335;-90
2022/12/09 08:32:41;;;;;;;;;23.50;19.50;;;;;-0.45;78.45;99554.91;5054047;28;45368;-91
2022/12/09 08:35:13;;;;;;;;;28.50;21.50;;;;;-0.14;77.97;99620.06;5071060;28;45368;-90
2022/12/09 08:37:41;;;;;;;;;20.50;16.75;;;;;0.73;77.71;99760.28;5067472;28;45305;-90
2022/12/09 08:40:08;;;;;;;;;31.00;26.25;;;;;-0.16;77.95;99607.06;5065206;28;45256;-92
2022/12/09 08:42:37;;;;;;;;;29.25;21.75;;;;;0.48;78.02;99700.25;5072930;28;45412;-90
2022/12/09 08:45:11;;;;;;;;;27.25;25.25;;;;;0.74;78.20;99750.72;5072835;28;45372;-92
2022/12/09 08:47:39;;;;;;;;;28.75;25.50;;;;;-0.15;77.99;99601.03;5064451;28;47631;-90
2022/12/09 08:50:05;;;;;;;;;33.00;28.00;;;;;0.07;78.38;99633.22;5062928;28;45260;-93
2022/12/09 08:52:36;;;;;;;;;30.00;25.75;;;;;-0.42;78.55;99549.72;5082275;28;45501;-91
2022/12/09 08:55:05;;;;;;;;;26.75;25.75;;;;;0.92;78.13;99765.59;5073348;28;45272;-90
2022/12/09 08:57:30;;;;;;;;;21.50;16.75;;;;;0.14;77.91;99619.44;5081054;27;47096;-91
2022/12/09 08:59:56;;;;;;;;;22.50;22.50;;;;;0.06;77.74;99613.31;5047070;28;45297;-90
2022/12/09 09:02:24;;;;;;;;;25.00;24.50;;;;;0.21;77.73;99628.13;5057064;28;45343;-89
2022/12/09 09:04:50;;;;;;;;;26.50;21.00;;;;;1.10;78.47;99778.72;5041620;28;45701;-90
2022/12/09 09:07:15;;;;;;;;;32.75;24.00;;;;;0.58;78.27;99667.38;5042884;28;45378;-90
2022/12/09 09:09:41;;;;;;;;;33.50;26.00;;;;;1.47;78.43;99810.16;5042401;28;45460;-90
2022/12/09 09:12:07;;;;;;;;;29.75;26.00;;;;;1.08;78.03;99730.09;5054438;28;45436;-90
2022/12/09 09:14:32;;;;;;;;;34.25;27.75;;;;;1.26;78.31;99764.06;5055347;28;45524;-90
2022/12/09 09:16:58;;;;;;;;;22.00;19.25;;;;;1.47;78.15;99804.94;5092495;28;45240;-89
2022/12/09 09:19:25;;;;;;;;;29.00;26.00;;;;;0.37;77.73;99610.91;5061701;28;45315;-89
2022/12/09 09:21:51;;;;;;;;;25.75;21.75;;;;;1.32;77.96;99765.81;5079174;28;45374;-90
2022/12/09 09:24:24;;;;;;;;;27.00;24.25;;;;;1.87;78.09;99838.13;5053925;28;45578;-89
2022/12/09 09:26:50;;;;;;;;;27.75;24.00;;;;;0.98;77.62;99684.94;5062937;28;47300;-89
2022/12/09 09:29:18;;;;;;;;;36.00;28.75;;;;;0.19;78.10;99551.03;5081275;28;45316;-89
2022/12/09 09:31:47;;;;;;;;;33.25;26.75;;;;;1.33;77.77;99689.44;5076032;28;45259;-89
2022/12/09 09:34:15;;;;;;;;;31.25;27.25;;;;;1.91;77.86;99757.34;5079877;28;45478;-90
2022/12/09 09:36:42;;;;;;;;;31.75;28.00;;;;;1.54;77.19;99699.91;5051601;28;46782;-90
2022/12/09 09:39:08;;;;;;;;;38.50;32.00;;;;;2.10;77.54;99765.19;5042288;28;45487;-91
2022/12/09 09:41:50;;;;;;;;;36.25;32.50;;;;;2.57;77.60;99858.28;5041858;28;45402;-90
2022/12/09 09:44:29;;;;;;;;;38.50;29.75;;;;;2.59;77.07;99835.66;5061756;28;45201;-89
2022/12/09 09:47:20;;;;;;;;;35.00;26.00;;;;;1.87;77.30;99745.16;5078132;28;46364;-93
2022/12/09 09:50:19;;;;;;;;;36.75;33.50;;;;;0.83;77.74;99547.84;5066627;28;45405;-91
2022/12/09 09:53:20;;;;;;;;;38.50;34.25;;;;;0.83;77.10;99579.06;5064310;28;45529;-90
2022/12/09 09:56:44;;;;;;;;;;;;;;;;;;;;;
2022/12/09 10:03:06;;;;;;;;;39.50;30.00;;;;;2.75;76.38;99681.69;5086580;28;45413;-92
2022/12/09 10:06:06;;;;;;;;;22.00;15.75;;;;;1.70;75.03;99422.03;5064176;28;45209;-92
2022/12/09 10:09:05;;;;;;;;;42.25;34.50;;;;;4.56;75.22;99834.19;5062193;28;45632;-92
2022/12/09 10:11:54;;;;;;;;;36.75;32.25;;;;;3.63;73.81;99590.75;5036721;28;47348;-91
2022/12/09 10:18:24;;;;;;;;;35.25;29.50;;;;;3.92;73.50;99594.88;5873320;22;46691;-90
2022/12/09 10:20:52;;;;;;;;;38.00;32.00;;;;;4.32;73.31;99688.69;5086572;28;45220;-90
2022/12/09 10:23:19;;;;;;;;;30.75;30.25;;;;;5.28;73.18;99832.72;5066249;28;47270;-90
2022/12/09 10:25:58;;;;;;;;;40.75;33.50;;;;;4.81;73.09;99695.19;5068426;28;45409;-87
2022/12/09 10:28:35;;;;;;;;;38.25;34.25;;;;;5.29;73.12;99739.22;5098840;28;44721;-85
2022/12/09 10:31:02;;;;;;;;;34.75;29.50;;;;;5.89;72.77;99806.66;5068799;28;44929;-89
2022/12/09 10:33:38;;;;;;;;;41.25;36.25;;;;;5.59;72.82;99750.25;5078095;28;45929;-88
2022/12/09 10:36:06;;;;;;;;;38.75;34.50;;;;;4.19;72.35;99499.59;5071011;28;45855;-89
2022/12/09 10:38:37;;;;;;;;;37.75;30.00;;;;;6.04;73.66;99826.59;5063409;28;45405;-92
2022/12/09 10:44:27;;;;;;;;;46.00;38.50;;;;;4.95;73.02;99606.00;5072355;28;45301;-90
2022/12/09 10:47:26;;;;;;;;;48.50;38.75;;;;;5.29;72.94;99626.53;5049377;28;44782;-90
2022/12/09 10:49:54;;;;;;;;;54.25;41.25;;;;;4.95;72.56;99558.88;5042362;28;45441;-93
2022/12/09 10:56:21;;;;;;;;;74.50;58.25;;;;;6.84;71.75;99795.66;5065533;28;45522;-91
2022/12/09 11:02:09;;;;;;;;;84.50;67.50;;;;;7.29;72.06;99775.56;5060166;28;45382;-92
2022/12/09 11:04:36;;;;;;;;;47.00;39.25;;;;;7.50;71.23;99777.78;5042738;28;45526;-91
2022/12/09 11:07:13;;;;;;;;;37.75;34.50;;;;;6.99;70.45;99647.38;5045800;28;47306;-89
2022/12/09 11:09:50;;;;;;;;;39.75;35.75;;;;;6.32;69.37;99503.41;5067800;28;45277;-90
2022/12/09 11:12:17;;;;;;;;;47.00;40.25;;;;;7.02;67.76;99579.00;5055472;28;44779;-92
2022/12/09 11:14:59;;;;;;;;;105.33;90.67;;;;;7.47;68.01;99618.34;5052021;28;45309;-92
2022/12/09 11:17:52;;;;;;;;;51.75;41.25;;;;;8.64;67.98;99770.91;5065736;28;46571;-92
2022/12/09 11:20:24;;;;;;;;;42.50;34.00;;;;;8.53;67.03;99723.75;4998002;28;45479;-93
2022/12/09 11:23:19;;;;;;;;;42.50;38.50;;;;;9.12;68.20;99758.25;4983920;28;45483;-90
2022/12/09 11:25:58;;;;;;;;;37.00;32.25;;;;;9.37;66.89;99775.16;4988537;28;45415;-92
2022/12/09 11:28:33;;;;;;;;;43.00;37.25;;;;;9.68;67.10;99755.78;4990405;28;47077;-91
2022/12/09 11:31:13;;;;;;;;;52.00;43.00;;;;;10.01;66.24;99749.56;4982816;28;45918;-93
2022/12/09 11:34:04;;;;;;;;;35.75;32.00;;;;;9.47;65.97;99587.59;4986139;28;45454;-92
2022/12/09 11:36:44;;;;;;;;;39.25;34.00;;;;;9.97;66.04;99630.00;4983680;28;45335;-92
2022/12/09 11:39:24;;;;;;;;;67.25;55.00;;;;;9.68;66.07;99502.47;4985918;28;47475;-91
2022/12/09 11:42:19;;;;;;;;;44.50;36.00;;;;;10.49;63.75;99582.50;4983781;28;45433;-92
2022/12/09 11:45:17;;;;;;;;;36.50;31.25;;;;;9.91;63.50;99450.69;4997828;28;45299;-91
2022/12/09 11:47:45;;;;;;;;;37.75;33.00;;;;;11.84;64.36;99738.00;4982017;28;45360;-91
2022/12/09 11:50:30;;;;;;;;;28.25;28.25;;;;;11.33;64.05;99604.13;4998166;28;48244;-92
2022/12/09 11:53:13;;;;;;;;;39.00;35.25;;;;;12.52;64.24;99735.34;5002696;28;45424;-89
2022/12/09 11:55:50;;;;;;;;;38.75;35.75;;;;;12.82;63.93;99728.81;5001420;28;45346;-91
2022/12/09 11:59:03;;;;;;;;;41.25;33.75;;;;;12.25;63.77;99571.28;5038274;28;45418;-91
2022/12/09 12:01:56;;;;;;;;;28.75;28.00;;;;;12.63;61.48;99570.53;4964291;28;47210;-90
2022/12/09 12:04:38;;;;;;;;;32.25;29.50;;;;;12.66;61.37;99578.34;4927928;28;45399;-88